sensor_id;sensor_type;location;lat;lon;timestamp;temperature;humidity
65203;HTU21D;51788;45.124;38.966;2022-07-23T00:02:10;17.81;88.92
65203;HTU21D;51788;45.124;38.966;2022-07-23T00:04:36;17.80;88.83
65203;HTU21D;51788;45.124;38.966;2022-07-23T00:07:02;17.91;88.74
65203;HTU21D;51788;45.124;38.966;2022-07-23T00:09:28;18.08;88.47
65203;HTU21D;51788;45.124;38.966;2022-07-23T00:11:56;18.21;88.23
65203;HTU21D;51788;45.124;38.966;2022-07-23T00:14:22;18.34;88.12
65203;HTU21D;51788;45.124;38.966;2022-07-23T00:16:48;18.46;87.96
65203;HTU21D;51788;45.124;38.966;2022-07-23T00:19:14;18.56;87.91
65203;HTU21D;51788;45.124;38.966;2022-07-23T00:21:40;18.65;87.88
65203;HTU21D;51788;45.124;38.966;2022-07-23T00:24:06;18.66;87.93
65203;HTU21D;51788;45.124;38.966;2022-07-23T00:26:32;18.70;88.00
65203;HTU21D;51788;45.124;38.966;2022-07-23T00:28:58;18.73;88.06
65203;HTU21D;51788;45.124;38.966;2022-07-23T00:31:24;18.68;88.24
65203;HTU21D;51788;45.124;38.966;2022-07-23T00:33:50;18.66;88.47
65203;HTU21D;51788;45.124;38.966;2022-07-23T00:36:16;18.65;88.61
65203;HTU21D;51788;45.124;38.966;2022-07-23T00:38:42;18.66;88.60
65203;HTU21D;51788;45.124;38.966;2022-07-23T00:41:08;18.64;88.69
65203;HTU21D;51788;45.124;38.966;2022-07-23T00:43:34;18.62;88.83
65203;HTU21D;51788;45.124;38.966;2022-07-23T00:46:00;18.63;88.89
65203;HTU21D;51788;45.124;38.966;2022-07-23T00:48:26;18.67;88.82
65203;HTU21D;51788;45.124;38.966;2022-07-23T00:50:52;18.69;88.80
65203;HTU21D;51788;45.124;38.966;2022-07-23T00:53:19;18.73;88.68
65203;HTU21D;51788;45.124;38.966;2022-07-23T00:55:47;18.76;88.59
65203;HTU21D;51788;45.124;38.966;2022-07-23T00:58:13;18.78;88.54
65203;HTU21D;51788;45.124;38.966;2022-07-23T01:00:40;18.82;88.47
65203;HTU21D;51788;45.124;38.966;2022-07-23T01:03:06;18.85;88.39
65203;HTU21D;51788;45.124;38.966;2022-07-23T01:05:33;18.89;88.35
65203;HTU21D;51788;45.124;38.966;2022-07-23T01:07:59;18.93;88.35
65203;HTU21D;51788;45.124;38.966;2022-07-23T01:10:25;18.93;88.33
65203;HTU21D;51788;45.124;38.966;2022-07-23T01:13:04;18.95;88.22
65203;HTU21D;51788;45.124;38.966;2022-07-23T01:15:32;18.95;88.08
65203;HTU21D;51788;45.124;38.966;2022-07-23T01:17:58;18.97;88.03
65203;HTU21D;51788;45.124;38.966;2022-07-23T01:20:26;19.00;87.99
65203;HTU21D;51788;45.124;38.966;2022-07-23T01:22:53;19.00;87.90
65203;HTU21D;51788;45.124;38.966;2022-07-23T01:25:20;19.01;87.87
65203;HTU21D;51788;45.124;38.966;2022-07-23T01:27:54;19.02;87.87
65203;HTU21D;51788;45.124;38.966;2022-07-23T01:30:21;19.03;87.91
65203;HTU21D;51788;45.124;38.966;2022-07-23T01:32:47;19.02;87.96
65203;HTU21D;51788;45.124;38.966;2022-07-23T01:35:13;19.01;88.02
65203;HTU21D;51788;45.124;38.966;2022-07-23T01:37:39;18.98;88.10
65203;HTU21D;51788;45.124;38.966;2022-07-23T01:40:07;18.89;88.37
65203;HTU21D;51788;45.124;38.966;2022-07-23T01:42:33;18.87;88.50
65203;HTU21D;51788;45.124;38.966;2022-07-23T01:44:59;18.83;88.65
65203;HTU21D;51788;45.124;38.966;2022-07-23T01:47:26;18.83;88.76
65203;HTU21D;51788;45.124;38.966;2022-07-23T01:49:54;18.83;88.83
65203;HTU21D;51788;45.124;38.966;2022-07-23T01:52:38;18.86;88.88
65203;HTU21D;51788;45.124;38.966;2022-07-23T01:55:06;18.89;88.89
65203;HTU21D;51788;45.124;38.966;2022-07-23T01:57:33;18.93;88.96
65203;HTU21D;51788;45.124;38.966;2022-07-23T01:59:59;18.94;89.04
65203;HTU21D;51788;45.124;38.966;2022-07-23T02:02:25;18.97;89.12
65203;HTU21D;51788;45.124;38.966;2022-07-23T02:04:53;19.00;89.13
65203;HTU21D;51788;45.124;38.966;2022-07-23T02:07:21;19.00;89.16
65203;HTU21D;51788;45.124;38.966;2022-07-23T02:09:46;19.02;89.16
65203;HTU21D;51788;45.124;38.966;2022-07-23T02:12:12;19.05;89.15
65203;HTU21D;51788;45.124;38.966;2022-07-23T02:14:39;19.05;89.18
65203;HTU21D;51788;45.124;38.966;2022-07-23T02:17:05;19.01;89.31
65203;HTU21D;51788;45.124;38.966;2022-07-23T02:19:31;19.00;89.47
65203;HTU21D;51788;45.124;38.966;2022-07-23T02:21:57;18.98;89.60
65203;HTU21D;51788;45.124;38.966;2022-07-23T02:24:23;18.97;89.78
65203;HTU21D;51788;45.124;38.966;2022-07-23T02:26:50;18.97;89.84
65203;HTU21D;51788;45.124;38.966;2022-07-23T02:29:16;18.99;89.86
65203;HTU21D;51788;45.124;38.966;2022-07-23T02:31:42;19.00;89.83
65203;HTU21D;51788;45.124;38.966;2022-07-23T02:34:08;19.02;89.91
65203;HTU21D;51788;45.124;38.966;2022-07-23T02:36:38;19.05;90.04
65203;HTU21D;51788;45.124;38.966;2022-07-23T02:39:07;19.08;89.97
65203;HTU21D;51788;45.124;38.966;2022-07-23T02:41:34;19.11;90.01
65203;HTU21D;51788;45.124;38.966;2022-07-23T02:44:00;19.15;89.95
65203;HTU21D;51788;45.124;38.966;2022-07-23T02:46:27;19.24;89.82
65203;HTU21D;51788;45.124;38.966;2022-07-23T02:48:53;19.31;89.67
65203;HTU21D;51788;45.124;38.966;2022-07-23T02:51:19;19.37;89.56
65203;HTU21D;51788;45.124;38.966;2022-07-23T02:53:52;19.42;89.53
65203;HTU21D;51788;45.124;38.966;2022-07-23T02:56:18;19.47;89.38
65203;HTU21D;51788;45.124;38.966;2022-07-23T02:58:44;19.53;89.38
65203;HTU21D;51788;45.124;38.966;2022-07-23T03:01:10;19.55;89.41
65203;HTU21D;51788;45.124;38.966;2022-07-23T03:03:36;19.63;89.28
65203;HTU21D;51788;45.124;38.966;2022-07-23T03:06:02;19.65;89.21
65203;HTU21D;51788;45.124;38.966;2022-07-23T03:08:28;19.69;89.25
65203;HTU21D;51788;45.124;38.966;2022-07-23T03:10:55;19.76;89.05
65203;HTU21D;51788;45.124;38.966;2022-07-23T03:13:21;19.85;88.86
65203;HTU21D;51788;45.124;38.966;2022-07-23T03:15:47;19.90;88.76
65203;HTU21D;51788;45.124;38.966;2022-07-23T03:18:13;19.96;88.60
65203;HTU21D;51788;45.124;38.966;2022-07-23T03:20:39;19.99;88.67
65203;HTU21D;51788;45.124;38.966;2022-07-23T03:23:05;20.12;88.38
65203;HTU21D;51788;45.124;38.966;2022-07-23T03:25:31;20.19;88.27
65203;HTU21D;51788;45.124;38.966;2022-07-23T03:27:57;20.26;88.03
65203;HTU21D;51788;45.124;38.966;2022-07-23T03:30:26;20.24;88.11
65203;HTU21D;51788;45.124;38.966;2022-07-23T03:32:52;20.31;88.06
65203;HTU21D;51788;45.124;38.966;2022-07-23T03:35:18;20.42;87.70
65203;HTU21D;51788;45.124;38.966;2022-07-23T03:37:51;20.46;87.48
65203;HTU21D;51788;45.124;38.966;2022-07-23T03:40:18;20.50;87.42
65203;HTU21D;51788;45.124;38.966;2022-07-23T03:42:44;20.54;87.19
65203;HTU21D;51788;45.124;38.966;2022-07-23T03:45:12;20.56;87.27
65203;HTU21D;51788;45.124;38.966;2022-07-23T03:47:38;20.61;87.16
65203;HTU21D;51788;45.124;38.966;2022-07-23T03:50:04;20.65;87.12
65203;HTU21D;51788;45.124;38.966;2022-07-23T03:52:32;20.75;86.82
65203;HTU21D;51788;45.124;38.966;2022-07-23T03:54:58;20.79;86.80
65203;HTU21D;51788;45.124;38.966;2022-07-23T03:57:24;20.78;86.90
65203;HTU21D;51788;45.124;38.966;2022-07-23T03:59:50;20.87;86.92
65203;HTU21D;51788;45.124;38.966;2022-07-23T04:02:16;21.00;86.69
65203;HTU21D;51788;45.124;38.966;2022-07-23T04:04:42;21.08;86.51
65203;HTU21D;51788;45.124;38.966;2022-07-23T04:07:08;21.16;86.32
65203;HTU21D;51788;45.124;38.966;2022-07-23T04:09:34;21.20;86.25
65203;HTU21D;51788;45.124;38.966;2022-07-23T04:12:00;21.24;86.11
65203;HTU21D;51788;45.124;38.966;2022-07-23T04:14:26;21.25;86.12
65203;HTU21D;51788;45.124;38.966;2022-07-23T04:16:53;21.33;85.93
65203;HTU21D;51788;45.124;38.966;2022-07-23T04:19:20;21.52;85.65
65203;HTU21D;51788;45.124;38.966;2022-07-23T04:21:56;21.79;84.90
65203;HTU21D;51788;45.124;38.966;2022-07-23T04:24:22;21.94;84.32
65203;HTU21D;51788;45.124;38.966;2022-07-23T04:26:48;22.01;83.98
65203;HTU21D;51788;45.124;38.966;2022-07-23T04:29:14;22.08;83.85
65203;HTU21D;51788;45.124;38.966;2022-07-23T04:31:40;22.16;83.57
65203;HTU21D;51788;45.124;38.966;2022-07-23T04:34:06;22.21;83.34
65203;HTU21D;51788;45.124;38.966;2022-07-23T04:36:32;22.29;83.36
65203;HTU21D;51788;45.124;38.966;2022-07-23T04:38:58;22.41;83.00
65203;HTU21D;51788;45.124;38.966;2022-07-23T04:41:25;22.46;82.58
65203;HTU21D;51788;45.124;38.966;2022-07-23T04:43:51;22.48;82.38
65203;HTU21D;51788;45.124;38.966;2022-07-23T04:46:18;22.49;82.16
65203;HTU21D;51788;45.124;38.966;2022-07-23T04:48:47;22.50;82.06
65203;HTU21D;51788;45.124;38.966;2022-07-23T04:51:13;22.61;81.89
65203;HTU21D;51788;45.124;38.966;2022-07-23T04:53:39;22.72;81.73
65203;HTU21D;51788;45.124;38.966;2022-07-23T04:56:06;22.79;81.61
65203;HTU21D;51788;45.124;38.966;2022-07-23T04:58:32;22.85;81.29
65203;HTU21D;51788;45.124;38.966;2022-07-23T05:00:58;22.81;81.25
65203;HTU21D;51788;45.124;38.966;2022-07-23T05:03:25;22.79;81.13
65203;HTU21D;51788;45.124;38.966;2022-07-23T05:05:52;22.78;80.85
65203;HTU21D;51788;45.124;38.966;2022-07-23T05:08:18;22.82;80.74
65203;HTU21D;51788;45.124;38.966;2022-07-23T05:10:49;22.99;80.43
65203;HTU21D;51788;45.124;38.966;2022-07-23T05:13:16;22.95;80.22
65203;HTU21D;51788;45.124;38.966;2022-07-23T05:15:43;22.83;80.17
65203;HTU21D;51788;45.124;38.966;2022-07-23T05:18:09;22.77;80.16
65203;HTU21D;51788;45.124;38.966;2022-07-23T05:20:35;22.87;79.87
65203;HTU21D;51788;45.124;38.966;2022-07-23T05:23:02;23.02;79.33
65203;HTU21D;51788;45.124;38.966;2022-07-23T05:25:28;23.11;78.79
65203;HTU21D;51788;45.124;38.966;2022-07-23T05:27:55;23.13;78.66
65203;HTU21D;51788;45.124;38.966;2022-07-23T05:30:21;23.06;78.68
65203;HTU21D;51788;45.124;38.966;2022-07-23T05:32:49;23.15;78.02
65203;HTU21D;51788;45.124;38.966;2022-07-23T05:35:17;23.34;77.05
65203;HTU21D;51788;45.124;38.966;2022-07-23T05:37:53;23.45;76.08
65203;HTU21D;51788;45.124;38.966;2022-07-23T05:40:19;23.37;76.06
65203;HTU21D;51788;45.124;38.966;2022-07-23T05:42:45;23.23;76.12
65203;HTU21D;51788;45.124;38.966;2022-07-23T05:45:11;23.12;76.45
65203;HTU21D;51788;45.124;38.966;2022-07-23T05:47:46;23.13;76.37
65203;HTU21D;51788;45.124;38.966;2022-07-23T05:50:16;23.21;76.52
65203;HTU21D;51788;45.124;38.966;2022-07-23T05:52:50;23.26;76.38
65203;HTU21D;51788;45.124;38.966;2022-07-23T05:55:19;23.28;76.41
65203;HTU21D;51788;45.124;38.966;2022-07-23T05:57:45;23.34;76.06
65203;HTU21D;51788;45.124;38.966;2022-07-23T06:00:11;23.31;75.33
65203;HTU21D;51788;45.124;38.966;2022-07-23T06:02:42;23.28;75.38
65203;HTU21D;51788;45.124;38.966;2022-07-23T06:05:09;23.45;75.15
65203;HTU21D;51788;45.124;38.966;2022-07-23T06:07:38;23.56;74.64
65203;HTU21D;51788;45.124;38.966;2022-07-23T06:10:05;23.40;74.62
65203;HTU21D;51788;45.124;38.966;2022-07-23T06:12:31;23.34;74.45
65203;HTU21D;51788;45.124;38.966;2022-07-23T06:14:57;23.38;73.44
65203;HTU21D;51788;45.124;38.966;2022-07-23T06:17:23;23.39;73.36
65203;HTU21D;51788;45.124;38.966;2022-07-23T06:19:50;23.52;72.89
65203;HTU21D;51788;45.124;38.966;2022-07-23T06:22:16;23.59;72.58
65203;HTU21D;51788;45.124;38.966;2022-07-23T06:24:45;23.64;72.30
65203;HTU21D;51788;45.124;38.966;2022-07-23T06:27:11;23.79;71.80
65203;HTU21D;51788;45.124;38.966;2022-07-23T06:29:37;23.97;70.90
65203;HTU21D;51788;45.124;38.966;2022-07-23T06:32:03;24.17;70.38
65203;HTU21D;51788;45.124;38.966;2022-07-23T06:34:29;24.36;69.94
65203;HTU21D;51788;45.124;38.966;2022-07-23T06:36:56;24.64;68.65
65203;HTU21D;51788;45.124;38.966;2022-07-23T06:39:22;24.82;68.14
65203;HTU21D;51788;45.124;38.966;2022-07-23T06:41:48;24.85;67.59
65203;HTU21D;51788;45.124;38.966;2022-07-23T06:44:16;24.69;68.10
65203;HTU21D;51788;45.124;38.966;2022-07-23T06:46:43;24.51;68.70
65203;HTU21D;51788;45.124;38.966;2022-07-23T06:49:09;24.38;69.45
65203;HTU21D;51788;45.124;38.966;2022-07-23T06:51:35;24.19;69.79
65203;HTU21D;51788;45.124;38.966;2022-07-23T06:54:02;23.98;70.06
65203;HTU21D;51788;45.124;38.966;2022-07-23T06:56:29;23.77;70.83
65203;HTU21D;51788;45.124;38.966;2022-07-23T06:58:55;23.17;73.34
65203;HTU21D;51788;45.124;38.966;2022-07-23T07:01:21;22.69;75.57
65203;HTU21D;51788;45.124;38.966;2022-07-23T07:03:47;22.52;77.15
65203;HTU21D;51788;45.124;38.966;2022-07-23T07:06:14;22.54;77.89
65203;HTU21D;51788;45.124;38.966;2022-07-23T07:08:41;22.68;77.83
65203;HTU21D;51788;45.124;38.966;2022-07-23T07:11:08;22.87;77.20
65203;HTU21D;51788;45.124;38.966;2022-07-23T07:13:34;23.07;76.55
65203;HTU21D;51788;45.124;38.966;2022-07-23T07:16:00;23.25;76.38
65203;HTU21D;51788;45.124;38.966;2022-07-23T07:18:26;23.46;76.02
65203;HTU21D;51788;45.124;38.966;2022-07-23T07:20:52;23.70;75.18
65203;HTU21D;51788;45.124;38.966;2022-07-23T07:23:18;23.89;74.43
65203;HTU21D;51788;45.124;38.966;2022-07-23T07:25:46;24.06;73.92
65203;HTU21D;51788;45.124;38.966;2022-07-23T07:28:12;24.29;73.32
65203;HTU21D;51788;45.124;38.966;2022-07-23T07:30:38;24.57;72.33
65203;HTU21D;51788;45.124;38.966;2022-07-23T07:33:05;24.70;71.42
65203;HTU21D;51788;45.124;38.966;2022-07-23T07:35:31;24.61;71.56
65203;HTU21D;51788;45.124;38.966;2022-07-23T07:37:59;24.23;72.45
65203;HTU21D;51788;45.124;38.966;2022-07-23T07:40:25;23.72;74.60
65203;HTU21D;51788;45.124;38.966;2022-07-23T07:42:52;23.22;76.21
65203;HTU21D;51788;45.124;38.966;2022-07-23T07:45:22;22.91;77.57
65203;HTU21D;51788;45.124;38.966;2022-07-23T07:47:50;22.83;78.20
65203;HTU21D;51788;45.124;38.966;2022-07-23T07:50:16;22.86;78.47
65203;HTU21D;51788;45.124;38.966;2022-07-23T07:52:42;22.96;78.05
65203;HTU21D;51788;45.124;38.966;2022-07-23T07:55:09;23.10;77.91
65203;HTU21D;51788;45.124;38.966;2022-07-23T07:57:36;23.27;77.43
65203;HTU21D;51788;45.124;38.966;2022-07-23T08:00:03;23.51;76.47
65203;HTU21D;51788;45.124;38.966;2022-07-23T08:02:45;23.76;75.91
65203;HTU21D;51788;45.124;38.966;2022-07-23T08:05:12;24.04;75.09
65203;HTU21D;51788;45.124;38.966;2022-07-23T08:07:38;24.24;74.19
65203;HTU21D;51788;45.124;38.966;2022-07-23T08:10:09;24.45;73.26
65203;HTU21D;51788;45.124;38.966;2022-07-23T08:13:01;24.69;68.47
65203;HTU21D;51788;45.124;38.966;2022-07-23T08:15:29;24.78;69.05
65203;HTU21D;51788;45.124;38.966;2022-07-23T08:17:55;24.89;68.42
65203;HTU21D;51788;45.124;38.966;2022-07-23T08:20:23;24.97;68.16
65203;HTU21D;51788;45.124;38.966;2022-07-23T08:22:56;24.94;67.78
65203;HTU21D;51788;45.124;38.966;2022-07-23T08:25:28;25.01;67.30
65203;HTU21D;51788;45.124;38.966;2022-07-23T08:27:54;25.16;66.42
65203;HTU21D;51788;45.124;38.966;2022-07-23T08:30:21;25.15;65.24
65203;HTU21D;51788;45.124;38.966;2022-07-23T08:32:55;25.19;64.21
65203;HTU21D;51788;45.124;38.966;2022-07-23T08:35:35;25.28;62.38
65203;HTU21D;51788;45.124;38.966;2022-07-23T08:38:03;25.31;62.35
65203;HTU21D;51788;45.124;38.966;2022-07-23T08:40:32;25.19;62.57
65203;HTU21D;51788;45.124;38.966;2022-07-23T08:42:59;25.17;62.18
65203;HTU21D;51788;45.124;38.966;2022-07-23T08:45:26;25.19;62.31
65203;HTU21D;51788;45.124;38.966;2022-07-23T08:47:54;25.09;62.37
65203;HTU21D;51788;45.124;38.966;2022-07-23T08:50:23;24.97;61.50
65203;HTU21D;51788;45.124;38.966;2022-07-23T08:52:50;25.02;60.80
65203;HTU21D;51788;45.124;38.966;2022-07-23T08:55:22;25.18;59.28
65203;HTU21D;51788;45.124;38.966;2022-07-23T08:57:50;25.19;59.57
65203;HTU21D;51788;45.124;38.966;2022-07-23T09:00:18;25.05;60.23
65203;HTU21D;51788;45.124;38.966;2022-07-23T09:02:45;25.00;59.86
65203;HTU21D;51788;45.124;38.966;2022-07-23T09:05:12;25.13;59.71
65203;HTU21D;51788;45.124;38.966;2022-07-23T09:08:05;25.28;58.61
65203;HTU21D;51788;45.124;38.966;2022-07-23T09:11:03;25.28;59.06
65203;HTU21D;51788;45.124;38.966;2022-07-23T09:13:49;25.28;59.03
65203;HTU21D;51788;45.124;38.966;2022-07-23T09:16:26;25.27;59.38
65203;HTU21D;51788;45.124;38.966;2022-07-23T09:19:04;25.37;57.93
65203;HTU21D;51788;45.124;38.966;2022-07-23T09:21:35;25.45;58.54
65203;HTU21D;51788;45.124;38.966;2022-07-23T09:24:08;25.53;58.19
65203;HTU21D;51788;45.124;38.966;2022-07-23T09:26:41;25.59;57.02
65203;HTU21D;51788;45.124;38.966;2022-07-23T09:29:24;25.60;56.23
65203;HTU21D;51788;45.124;38.966;2022-07-23T09:36:46;25.47;57.80
65203;HTU21D;51788;45.124;38.966;2022-07-23T09:39:14;25.07;58.03
65203;HTU21D;51788;45.124;38.966;2022-07-23T09:41:46;24.93;58.50
65203;HTU21D;51788;45.124;38.966;2022-07-23T09:44:15;25.09;58.51
65203;HTU21D;51788;45.124;38.966;2022-07-23T09:46:43;25.24;57.55
65203;HTU21D;51788;45.124;38.966;2022-07-23T09:51:49;25.32;55.68
65203;HTU21D;51788;45.124;38.966;2022-07-23T09:54:31;25.37;55.52
65203;HTU21D;51788;45.124;38.966;2022-07-23T09:57:05;25.42;56.61
65203;HTU21D;51788;45.124;38.966;2022-07-23T09:59:35;25.21;56.23
65203;HTU21D;51788;45.124;38.966;2022-07-23T10:02:02;25.19;55.70
65203;HTU21D;51788;45.124;38.966;2022-07-23T10:04:36;25.22;55.85
65203;HTU21D;51788;45.124;38.966;2022-07-23T10:07:22;25.37;55.34
65203;HTU21D;51788;45.124;38.966;2022-07-23T10:10:13;25.44;55.28
65203;HTU21D;51788;45.124;38.966;2022-07-23T10:13:09;25.61;54.83
65203;HTU21D;51788;45.124;38.966;2022-07-23T10:16:07;26.54;52.15
65203;HTU21D;51788;45.124;38.966;2022-07-23T10:18:34;26.27;53.22
65203;HTU21D;51788;45.124;38.966;2022-07-23T10:21:02;26.08;53.67
65203;HTU21D;51788;45.124;38.966;2022-07-23T10:23:35;26.04;54.02
65203;HTU21D;51788;45.124;38.966;2022-07-23T10:26:35;26.01;54.30
65203;HTU21D;51788;45.124;38.966;2022-07-23T10:29:11;26.23;54.37
65203;HTU21D;51788;45.124;38.966;2022-07-23T10:32:02;26.55;52.49
65203;HTU21D;51788;45.124;38.966;2022-07-23T10:34:42;26.76;52.93
65203;HTU21D;51788;45.124;38.966;2022-07-23T10:37:41;26.47;52.80
65203;HTU21D;51788;45.124;38.966;2022-07-23T10:40:11;26.27;53.70
65203;HTU21D;51788;45.124;38.966;2022-07-23T10:42:37;26.30;53.13
65203;HTU21D;51788;45.124;38.966;2022-07-23T10:45:25;26.28;52.68
65203;HTU21D;51788;45.124;38.966;2022-07-23T10:47:52;26.28;53.09
65203;HTU21D;51788;45.124;38.966;2022-07-23T10:53:14;26.50;50.93
65203;HTU21D;51788;45.124;38.966;2022-07-23T10:55:50;26.66;51.81
65203;HTU21D;51788;45.124;38.966;2022-07-23T10:58:21;26.66;51.68
65203;HTU21D;51788;45.124;38.966;2022-07-23T11:00:48;26.49;52.57
65203;HTU21D;51788;45.124;38.966;2022-07-23T11:03:32;26.38;52.78
65203;HTU21D;51788;45.124;38.966;2022-07-23T11:06:03;26.32;53.14
65203;HTU21D;51788;45.124;38.966;2022-07-23T11:08:30;26.11;53.52
65203;HTU21D;51788;45.124;38.966;2022-07-23T11:11:08;26.06;53.01
65203;HTU21D;51788;45.124;38.966;2022-07-23T11:13:46;26.01;53.10
65203;HTU21D;51788;45.124;38.966;2022-07-23T11:16:15;26.05;53.56
65203;HTU21D;51788;45.124;38.966;2022-07-23T11:24:11;26.08;53.22
65203;HTU21D;51788;45.124;38.966;2022-07-23T11:26:49;25.96;53.10
65203;HTU21D;51788;45.124;38.966;2022-07-23T11:34:44;26.38;52.68
65203;HTU21D;51788;45.124;38.966;2022-07-23T11:37:35;26.31;52.91
65203;HTU21D;51788;45.124;38.966;2022-07-23T11:40:06;26.28;53.33
65203;HTU21D;51788;45.124;38.966;2022-07-23T11:42:35;26.28;53.04
65203;HTU21D;51788;45.124;38.966;2022-07-23T11:45:01;26.35;52.88
65203;HTU21D;51788;45.124;38.966;2022-07-23T11:47:27;26.48;52.84
65203;HTU21D;51788;45.124;38.966;2022-07-23T11:52:19;26.39;53.26
65203;HTU21D;51788;45.124;38.966;2022-07-23T11:57:18;26.07;53.34
65203;HTU21D;51788;45.124;38.966;2022-07-23T11:59:51;25.96;53.14
65203;HTU21D;51788;45.124;38.966;2022-07-23T12:02:17;26.13;53.41
65203;HTU21D;51788;45.124;38.966;2022-07-23T12:04:45;26.27;52.94
65203;HTU21D;51788;45.124;38.966;2022-07-23T12:10:08;26.35;52.94
65203;HTU21D;51788;45.124;38.966;2022-07-23T12:12:38;26.42;52.60
65203;HTU21D;51788;45.124;38.966;2022-07-23T12:15:06;26.42;52.51
65203;HTU21D;51788;45.124;38.966;2022-07-23T12:17:36;26.48;52.30
65203;HTU21D;51788;45.124;38.966;2022-07-23T12:20:04;26.58;52.33
65203;HTU21D;51788;45.124;38.966;2022-07-23T12:22:39;26.58;52.07
65203;HTU21D;51788;45.124;38.966;2022-07-23T12:25:09;26.07;53.24
65203;HTU21D;51788;45.124;38.966;2022-07-23T12:27:36;25.76;53.78
65203;HTU21D;51788;45.124;38.966;2022-07-23T12:30:25;25.77;54.13
65203;HTU21D;51788;45.124;38.966;2022-07-23T12:32:54;26.02;53.73
65203;HTU21D;51788;45.124;38.966;2022-07-23T12:35:22;26.18;53.63
65203;HTU21D;51788;45.124;38.966;2022-07-23T12:37:51;26.32;53.33
65203;HTU21D;51788;45.124;38.966;2022-07-23T12:40:32;26.43;52.73
65203;HTU21D;51788;45.124;38.966;2022-07-23T12:43:10;26.43;52.13
65203;HTU21D;51788;45.124;38.966;2022-07-23T12:45:48;26.25;53.07
65203;HTU21D;51788;45.124;38.966;2022-07-23T12:48:26;26.11;53.17
65203;HTU21D;51788;45.124;38.966;2022-07-23T12:51:01;25.92;53.21
65203;HTU21D;51788;45.124;38.966;2022-07-23T12:56:18;25.73;54.07
65203;HTU21D;51788;45.124;38.966;2022-07-23T12:58:56;25.76;53.97
65203;HTU21D;51788;45.124;38.966;2022-07-23T13:01:25;25.80;53.94
65203;HTU21D;51788;45.124;38.966;2022-07-23T13:04:14;25.73;53.75
65203;HTU21D;51788;45.124;38.966;2022-07-23T13:06:54;25.74;53.92
65203;HTU21D;51788;45.124;38.966;2022-07-23T13:09:25;25.77;53.97
65203;HTU21D;51788;45.124;38.966;2022-07-23T13:11:52;25.75;53.96
65203;HTU21D;51788;45.124;38.966;2022-07-23T13:14:19;25.79;53.48
65203;HTU21D;51788;45.124;38.966;2022-07-23T13:16:46;25.68;53.44
65203;HTU21D;51788;45.124;38.966;2022-07-23T13:19:13;25.69;53.36
65203;HTU21D;51788;45.124;38.966;2022-07-23T13:21:40;25.78;52.75
65203;HTU21D;51788;45.124;38.966;2022-07-23T13:24:07;25.87;52.67
65203;HTU21D;51788;45.124;38.966;2022-07-23T13:26:33;25.92;52.53
65203;HTU21D;51788;45.124;38.966;2022-07-23T13:28:59;25.95;52.30
65203;HTU21D;51788;45.124;38.966;2022-07-23T13:31:25;26.03;52.44
65203;HTU21D;51788;45.124;38.966;2022-07-23T13:33:51;26.08;52.37
65203;HTU21D;51788;45.124;38.966;2022-07-23T13:36:17;26.01;52.50
65203;HTU21D;51788;45.124;38.966;2022-07-23T13:38:43;25.91;52.75
65203;HTU21D;51788;45.124;38.966;2022-07-23T13:41:10;25.79;53.13
65203;HTU21D;51788;45.124;38.966;2022-07-23T13:43:36;25.80;53.21
65203;HTU21D;51788;45.124;38.966;2022-07-23T13:46:02;25.65;53.30
65203;HTU21D;51788;45.124;38.966;2022-07-23T13:48:28;25.48;53.95
65203;HTU21D;51788;45.124;38.966;2022-07-23T13:50:55;25.35;54.21
65203;HTU21D;51788;45.124;38.966;2022-07-23T13:53:23;25.37;54.40
65203;HTU21D;51788;45.124;38.966;2022-07-23T13:55:51;25.40;54.71
65203;HTU21D;51788;45.124;38.966;2022-07-23T13:58:18;25.50;54.89
65203;HTU21D;51788;45.124;38.966;2022-07-23T14:00:47;25.48;54.99
65203;HTU21D;51788;45.124;38.966;2022-07-23T14:03:13;25.44;55.09
65203;HTU21D;51788;45.124;38.966;2022-07-23T14:05:39;25.35;54.59
65203;HTU21D;51788;45.124;38.966;2022-07-23T14:08:07;25.30;54.28
65203;HTU21D;51788;45.124;38.966;2022-07-23T14:10:33;25.23;54.55
65203;HTU21D;51788;45.124;38.966;2022-07-23T14:12:59;25.22;54.90
65203;HTU21D;51788;45.124;38.966;2022-07-23T14:15:27;25.30;55.07
65203;HTU21D;51788;45.124;38.966;2022-07-23T14:17:53;25.44;55.20
65203;HTU21D;51788;45.124;38.966;2022-07-23T14:20:21;25.54;54.55
65203;HTU21D;51788;45.124;38.966;2022-07-23T14:22:47;25.57;54.11
65203;HTU21D;51788;45.124;38.966;2022-07-23T14:25:15;25.56;53.87
65203;HTU21D;51788;45.124;38.966;2022-07-23T14:27:41;25.47;54.11
65203;HTU21D;51788;45.124;38.966;2022-07-23T14:30:08;25.24;54.21
65203;HTU21D;51788;45.124;38.966;2022-07-23T14:32:35;25.10;54.55
65203;HTU21D;51788;45.124;38.966;2022-07-23T14:35:03;25.03;54.61
65203;HTU21D;51788;45.124;38.966;2022-07-23T14:37:29;24.91;54.81
65203;HTU21D;51788;45.124;38.966;2022-07-23T14:39:55;24.91;55.10
65203;HTU21D;51788;45.124;38.966;2022-07-23T14:42:21;24.97;55.20
65203;HTU21D;51788;45.124;38.966;2022-07-23T14:44:47;25.00;54.96
65203;HTU21D;51788;45.124;38.966;2022-07-23T14:47:13;24.98;54.90
65203;HTU21D;51788;45.124;38.966;2022-07-23T14:49:39;24.91;54.97
65203;HTU21D;51788;45.124;38.966;2022-07-23T14:52:05;24.95;54.70
65203;HTU21D;51788;45.124;38.966;2022-07-23T14:54:31;24.94;54.93
65203;HTU21D;51788;45.124;38.966;2022-07-23T14:56:58;24.91;54.64
65203;HTU21D;51788;45.124;38.966;2022-07-23T14:59:25;24.86;54.92
65203;HTU21D;51788;45.124;38.966;2022-07-23T15:01:52;24.89;55.14
65203;HTU21D;51788;45.124;38.966;2022-07-23T15:04:18;24.92;54.83
65203;HTU21D;51788;45.124;38.966;2022-07-23T15:06:44;24.92;54.82
65203;HTU21D;51788;45.124;38.966;2022-07-23T15:09:10;24.92;54.83
65203;HTU21D;51788;45.124;38.966;2022-07-23T15:11:36;24.91;55.06
65203;HTU21D;51788;45.124;38.966;2022-07-23T15:14:04;24.90;55.26
65203;HTU21D;51788;45.124;38.966;2022-07-23T15:16:30;24.92;55.18
65203;HTU21D;51788;45.124;38.966;2022-07-23T15:18:56;24.94;55.07
65203;HTU21D;51788;45.124;38.966;2022-07-23T15:21:23;24.95;55.10
65203;HTU21D;51788;45.124;38.966;2022-07-23T15:23:49;24.88;55.33
65203;HTU21D;51788;45.124;38.966;2022-07-23T15:26:15;24.78;55.33
65203;HTU21D;51788;45.124;38.966;2022-07-23T15:28:43;24.65;55.63
65203;HTU21D;51788;45.124;38.966;2022-07-23T15:31:10;24.55;56.03
65203;HTU21D;51788;45.124;38.966;2022-07-23T15:33:36;24.47;56.09
65203;HTU21D;51788;45.124;38.966;2022-07-23T15:36:03;24.41;56.31
65203;HTU21D;51788;45.124;38.966;2022-07-23T15:38:29;24.38;56.48
65203;HTU21D;51788;45.124;38.966;2022-07-23T15:40:55;24.32;56.46
65203;HTU21D;51788;45.124;38.966;2022-07-23T15:43:22;24.30;56.45
65203;HTU21D;51788;45.124;38.966;2022-07-23T15:45:49;24.28;56.59